sensor_id;sensor_type;location;lat;lon;timestamp;P1;durP1;ratioP1;P2;durP2;ratioP2
23015;SDS011;11674;52.428;13.584;2023-03-14T00:01:36;1.40;;;1.00;;
23015;SDS011;11674;52.428;13.584;2023-03-14T00:06:43;2.10;;;1.02;;
23015;SDS011;11674;52.428;13.584;2023-03-14T00:11:50;1.10;;;1.00;;
23015;SDS011;11674;52.428;13.584;2023-03-14T00:16:57;1.05;;;0.95;;
23015;SDS011;11674;52.428;13.584;2023-03-14T00:22:04;1.20;;;0.80;;
23015;SDS011;11674;52.428;13.584;2023-03-14T00:27:11;6.05;;;1.10;;
23015;SDS011;11674;52.428;13.584;2023-03-14T00:32:18;1.60;;;1.10;;
23015;SDS011;11674;52.428;13.584;2023-03-14T00:37:26;2.10;;;1.00;;
23015;SDS011;11674;52.428;13.584;2023-03-14T00:42:34;1.98;;;1.10;;
23015;SDS011;11674;52.428;13.584;2023-03-14T00:47:40;2.33;;;1.08;;
23015;SDS011;11674;52.428;13.584;2023-03-14T00:52:47;1.85;;;1.05;;
23015;SDS011;11674;52.428;13.584;2023-03-14T00:57:54;2.78;;;1.23;;
23015;SDS011;11674;52.428;13.584;2023-03-14T01:03:02;1.15;;;0.90;;
23015;SDS011;11674;52.428;13.584;2023-03-14T01:08:08;2.65;;;1.02;;
23015;SDS011;11674;52.428;13.584;2023-03-14T01:13:15;1.40;;;0.90;;
23015;SDS011;11674;52.428;13.584;2023-03-14T01:18:22;0.82;;;0.80;;
23015;SDS011;11674;52.428;13.584;2023-03-14T01:23:29;1.20;;;0.70;;
23015;SDS011;11674;52.428;13.584;2023-03-14T01:28:37;3.42;;;1.58;;
23015;SDS011;11674;52.428;13.584;2023-03-14T01:33:44;2.97;;;0.93;;
23015;SDS011;11674;52.428;13.584;2023-03-14T01:38:52;12.88;;;6.80;;
23015;SDS011;11674;52.428;13.584;2023-03-14T01:43:59;9.73;;;5.38;;
23015;SDS011;11674;52.428;13.584;2023-03-14T01:59:32;1.48;;;1.10;;
23015;SDS011;11674;52.428;13.584;2023-03-14T02:04:39;1.25;;;1.15;;
23015;SDS011;11674;52.428;13.584;2023-03-14T02:09:50;1.30;;;0.77;;
23015;SDS011;11674;52.428;13.584;2023-03-14T02:15:01;2.45;;;1.40;;
23015;SDS011;11674;52.428;13.584;2023-03-14T02:20:54;2.08;;;1.25;;
23015;SDS011;11674;52.428;13.584;2023-03-14T02:26:12;1.40;;;1.17;;
23015;SDS011;11674;52.428;13.584;2023-03-14T02:31:26;1.38;;;0.90;;
23015;SDS011;11674;52.428;13.584;2023-03-14T02:36:33;3.92;;;2.08;;
23015;SDS011;11674;52.428;13.584;2023-03-14T02:41:41;2.78;;;1.85;;
23015;SDS011;11674;52.428;13.584;2023-03-14T02:46:48;3.72;;;1.00;;
23015;SDS011;11674;52.428;13.584;2023-03-14T02:51:55;5.22;;;2.80;;
23015;SDS011;11674;52.428;13.584;2023-03-14T02:57:02;3.50;;;1.70;;
23015;SDS011;11674;52.428;13.584;2023-03-14T03:02:10;3.30;;;1.27;;
23015;SDS011;11674;52.428;13.584;2023-03-14T03:07:17;1.30;;;0.98;;
23015;SDS011;11674;52.428;13.584;2023-03-14T03:12:24;0.80;;;0.80;;
23015;SDS011;11674;52.428;13.584;2023-03-14T03:17:31;1.00;;;0.90;;
23015;SDS011;11674;52.428;13.584;2023-03-14T03:22:39;1.67;;;1.00;;
23015;SDS011;11674;52.428;13.584;2023-03-14T03:27:47;2.95;;;1.83;;
23015;SDS011;11674;52.428;13.584;2023-03-14T03:32:54;6.25;;;3.20;;
23015;SDS011;11674;52.428;13.584;2023-03-14T03:38:02;1.90;;;1.00;;
23015;SDS011;11674;52.428;13.584;2023-03-14T03:43:09;1.25;;;1.00;;
23015;SDS011;11674;52.428;13.584;2023-03-14T03:48:18;0.90;;;0.65;;
23015;SDS011;11674;52.428;13.584;2023-03-14T03:53:25;1.50;;;0.90;;
23015;SDS011;11674;52.428;13.584;2023-03-14T03:58:32;3.88;;;1.02;;
23015;SDS011;11674;52.428;13.584;2023-03-14T04:03:39;1.35;;;1.05;;
23015;SDS011;11674;52.428;13.584;2023-03-14T04:08:46;1.38;;;0.80;;
23015;SDS011;11674;52.428;13.584;2023-03-14T04:14:30;0.75;;;0.70;;
23015;SDS011;11674;52.428;13.584;2023-03-14T04:19:45;4.28;;;1.50;;
23015;SDS011;11674;52.428;13.584;2023-03-14T04:24:54;1.88;;;1.00;;
23015;SDS011;11674;52.428;13.584;2023-03-14T04:30:01;1.15;;;1.00;;
23015;SDS011;11674;52.428;13.584;2023-03-14T04:35:32;0.70;;;0.70;;
23015;SDS011;11674;52.428;13.584;2023-03-14T04:40:43;1.83;;;1.00;;
23015;SDS011;11674;52.428;13.584;2023-03-14T04:45:55;1.10;;;0.70;;
23015;SDS011;11674;52.428;13.584;2023-03-14T04:51:03;1.47;;;0.70;;
23015;SDS011;11674;52.428;13.584;2023-03-14T04:56:10;1.35;;;0.60;;
23015;SDS011;11674;52.428;13.584;2023-03-14T05:01:17;1.08;;;0.80;;
23015;SDS011;11674;52.428;13.584;2023-03-14T05:06:43;3.75;;;1.95;;
23015;SDS011;11674;52.428;13.584;2023-03-14T05:12:08;2.17;;;1.42;;
23015;SDS011;11674;52.428;13.584;2023-03-14T05:17:33;7.20;;;3.15;;
23015;SDS011;11674;52.428;13.584;2023-03-14T05:23:01;2.72;;;1.80;;
23015;SDS011;11674;52.428;13.584;2023-03-14T05:28:20;2.40;;;1.08;;
23015;SDS011;11674;52.428;13.584;2023-03-14T05:33:53;1.75;;;1.00;;
23015;SDS011;11674;52.428;13.584;2023-03-14T05:39:35;1.42;;;1.00;;
23015;SDS011;11674;52.428;13.584;2023-03-14T05:44:57;1.92;;;0.80;;
23015;SDS011;11674;52.428;13.584;2023-03-14T05:50:22;1.85;;;0.90;;
23015;SDS011;11674;52.428;13.584;2023-03-14T05:55:43;3.53;;;0.85;;
23015;SDS011;11674;52.428;13.584;2023-03-14T06:00:55;1.52;;;0.85;;
23015;SDS011;11674;52.428;13.584;2023-03-14T06:06:14;0.85;;;0.80;;
23015;SDS011;11674;52.428;13.584;2023-03-14T06:11:22;4.80;;;2.85;;
23015;SDS011;11674;52.428;13.584;2023-03-14T06:16:29;1.77;;;0.80;;
23015;SDS011;11674;52.428;13.584;2023-03-14T06:21:44;3.00;;;0.80;;
23015;SDS011;11674;52.428;13.584;2023-03-14T06:26:52;1.63;;;0.80;;
23015;SDS011;11674;52.428;13.584;2023-03-14T06:31:59;4.15;;;1.02;;
23015;SDS011;11674;52.428;13.584;2023-03-14T06:37:06;3.17;;;1.17;;
23015;SDS011;11674;52.428;13.584;2023-03-14T06:42:13;1.52;;;0.88;;
23015;SDS011;11674;52.428;13.584;2023-03-14T06:47:20;3.53;;;1.20;;
23015;SDS011;11674;52.428;13.584;2023-03-14T06:52:27;4.65;;;1.00;;
23015;SDS011;11674;52.428;13.584;2023-03-14T06:57:34;3.63;;;1.05;;
23015;SDS011;11674;52.428;13.584;2023-03-14T07:02:41;6.72;;;2.70;;
23015;SDS011;11674;52.428;13.584;2023-03-14T07:08:17;4.72;;;1.92;;
23015;SDS011;11674;52.428;13.584;2023-03-14T07:13:24;2.50;;;0.98;;
23015;SDS011;11674;52.428;13.584;2023-03-14T07:18:36;4.60;;;2.47;;
23015;SDS011;11674;52.428;13.584;2023-03-14T07:23:43;4.25;;;1.48;;
23015;SDS011;11674;52.428;13.584;2023-03-14T07:28:52;6.93;;;2.58;;
23015;SDS011;11674;52.428;13.584;2023-03-14T07:33:59;5.55;;;2.60;;
23015;SDS011;11674;52.428;13.584;2023-03-14T07:39:10;3.15;;;1.60;;
23015;SDS011;11674;52.428;13.584;2023-03-14T07:44:37;9.38;;;3.10;;
23015;SDS011;11674;52.428;13.584;2023-03-14T07:49:44;6.13;;;2.92;;
23015;SDS011;11674;52.428;13.584;2023-03-14T07:54:51;3.15;;;1.30;;
23015;SDS011;11674;52.428;13.584;2023-03-14T07:59:58;2.13;;;1.13;;
23015;SDS011;11674;52.428;13.584;2023-03-14T08:05:13;2.40;;;1.10;;
23015;SDS011;11674;52.428;13.584;2023-03-14T08:10:20;3.28;;;1.65;;
23015;SDS011;11674;52.428;13.584;2023-03-14T08:15:28;2.92;;;1.05;;
23015;SDS011;11674;52.428;13.584;2023-03-14T08:20:36;4.93;;;1.75;;
23015;SDS011;11674;52.428;13.584;2023-03-14T08:25:43;5.63;;;1.10;;
23015;SDS011;11674;52.428;13.584;2023-03-14T08:30:50;3.45;;;1.27;;
23015;SDS011;11674;52.428;13.584;2023-03-14T08:35:58;3.53;;;1.40;;
23015;SDS011;11674;52.428;13.584;2023-03-14T08:41:07;3.13;;;1.25;;
23015;SDS011;11674;52.428;13.584;2023-03-14T08:46:15;5.07;;;1.10;;
23015;SDS011;11674;52.428;13.584;2023-03-14T08:51:22;3.35;;;1.10;;
23015;SDS011;11674;52.428;13.584;2023-03-14T08:56:29;4.45;;;1.05;;
23015;SDS011;11674;52.428;13.584;2023-03-14T09:01:36;10.85;;;1.35;;
23015;SDS011;11674;52.428;13.584;2023-03-14T09:06:43;4.13;;;1.08;;
23015;SDS011;11674;52.428;13.584;2023-03-14T09:11:50;3.42;;;1.20;;
23015;SDS011;11674;52.428;13.584;2023-03-14T09:16:57;6.53;;;1.52;;
23015;SDS011;11674;52.428;13.584;2023-03-14T09:22:04;4.63;;;1.00;;
23015;SDS011;11674;52.428;13.584;2023-03-14T09:27:11;3.45;;;1.30;;
23015;SDS011;11674;52.428;13.584;2023-03-14T09:32:18;3.50;;;1.08;;
23015;SDS011;11674;52.428;13.584;2023-03-14T09:37:25;3.97;;;1.15;;
23015;SDS011;11674;52.428;13.584;2023-03-14T09:42:32;5.13;;;1.02;;
23015;SDS011;11674;52.428;13.584;2023-03-14T09:47:39;3.65;;;1.10;;
23015;SDS011;11674;52.428;13.584;2023-03-14T09:52:48;3.67;;;1.15;;
23015;SDS011;11674;52.428;13.584;2023-03-14T09:57:59;2.80;;;1.03;;
23015;SDS011;11674;52.428;13.584;2023-03-14T10:08:19;3.92;;;1.10;;
23015;SDS011;11674;52.428;13.584;2023-03-14T10:13:26;6.47;;;1.33;;
23015;SDS011;11674;52.428;13.584;2023-03-14T10:18:34;1.55;;;0.90;;
23015;SDS011;11674;52.428;13.584;2023-03-14T10:23:41;4.97;;;1.00;;
23015;SDS011;11674;52.428;13.584;2023-03-14T10:28:52;3.05;;;0.80;;
23015;SDS011;11674;52.428;13.584;2023-03-14T10:34:12;1.95;;;1.02;;
23015;SDS011;11674;52.428;13.584;2023-03-14T10:39:28;2.45;;;0.98;;
23015;SDS011;11674;52.428;13.584;2023-03-14T10:44:41;2.63;;;1.15;;
23015;SDS011;11674;52.428;13.584;2023-03-14T10:49:49;3.20;;;0.98;;
23015;SDS011;11674;52.428;13.584;2023-03-14T10:55:01;3.58;;;0.82;;
23015;SDS011;11674;52.428;13.584;2023-03-14T11:00:14;2.25;;;0.73;;
23015;SDS011;11674;52.428;13.584;2023-03-14T11:05:34;2.40;;;0.77;;
23015;SDS011;11674;52.428;13.584;2023-03-14T11:10:51;3.25;;;0.60;;
23015;SDS011;11674;52.428;13.584;2023-03-14T11:16:24;2.28;;;0.77;;
23015;SDS011;11674;52.428;13.584;2023-03-14T11:21:35;1.33;;;0.82;;
23015;SDS011;11674;52.428;13.584;2023-03-14T11:27:00;2.17;;;0.98;;
23015;SDS011;11674;52.428;13.584;2023-03-14T11:37:52;3.53;;;0.80;;
23015;SDS011;11674;52.428;13.584;2023-03-14T11:43:19;2.70;;;1.00;;
23015;SDS011;11674;52.428;13.584;2023-03-14T11:48:35;2.78;;;0.93;;
23015;SDS011;11674;52.428;13.584;2023-03-14T11:59:53;4.53;;;1.10;;
23015;SDS011;11674;52.428;13.584;2023-03-14T12:10:51;1.95;;;0.68;;
23015;SDS011;11674;52.428;13.584;2023-03-14T12:16:03;1.40;;;0.90;;
23015;SDS011;11674;52.428;13.584;2023-03-14T12:21:13;3.03;;;0.90;;
23015;SDS011;11674;52.428;13.584;2023-03-14T12:26:21;3.33;;;1.05;;
23015;SDS011;11674;52.428;13.584;2023-03-14T12:42:01;2.45;;;0.70;;
23015;SDS011;11674;52.428;13.584;2023-03-14T12:52:33;1.30;;;0.70;;
23015;SDS011;11674;52.428;13.584;2023-03-14T12:58:00;1.88;;;0.63;;
23015;SDS011;11674;52.428;13.584;2023-03-14T13:03:36;1.05;;;0.70;;
23015;SDS011;11674;52.428;13.584;2023-03-14T13:08:57;0.52;;;0.52;;
23015;SDS011;11674;52.428;13.584;2023-03-14T13:14:07;2.72;;;0.77;;
23015;SDS011;11674;52.428;13.584;2023-03-14T13:19:20;1.52;;;0.60;;
23015;SDS011;11674;52.428;13.584;2023-03-14T13:24:33;0.75;;;0.60;;
23015;SDS011;11674;52.428;13.584;2023-03-14T13:29:41;0.60;;;0.50;;
23015;SDS011;11674;52.428;13.584;2023-03-14T13:34:48;0.30;;;0.30;;
23015;SDS011;11674;52.428;13.584;2023-03-14T13:39:56;0.63;;;0.50;;
23015;SDS011;11674;52.428;13.584;2023-03-14T13:45:03;1.75;;;0.60;;
23015;SDS011;11674;52.428;13.584;2023-03-14T13:50:16;0.93;;;0.40;;
23015;SDS011;11674;52.428;13.584;2023-03-14T13:55:24;2.95;;;1.35;;
23015;SDS011;11674;52.428;13.584;2023-03-14T14:00:31;3.10;;;1.00;;
23015;SDS011;11674;52.428;13.584;2023-03-14T14:05:38;1.80;;;0.93;;
23015;SDS011;11674;52.428;13.584;2023-03-14T14:10:45;2.17;;;0.60;;
23015;SDS011;11674;52.428;13.584;2023-03-14T14:15:54;10.25;;;0.93;;
23015;SDS011;11674;52.428;13.584;2023-03-14T14:21:01;0.45;;;0.45;;
23015;SDS011;11674;52.428;13.584;2023-03-14T14:26:13;3.38;;;1.80;;
23015;SDS011;11674;52.428;13.584;2023-03-14T14:31:23;1.50;;;1.05;;
23015;SDS011;11674;52.428;13.584;2023-03-14T14:36:36;2.40;;;0.40;;
23015;SDS011;11674;52.428;13.584;2023-03-14T14:41:47;0.40;;;0.40;;
23015;SDS011;11674;52.428;13.584;2023-03-14T14:46:56;0.57;;;0.40;;
23015;SDS011;11674;52.428;13.584;2023-03-14T14:52:09;2.50;;;1.40;;
23015;SDS011;11674;52.428;13.584;2023-03-14T14:57:27;1.80;;;1.23;;
23015;SDS011;11674;52.428;13.584;2023-03-14T15:07:44;2.50;;;0.65;;
23015;SDS011;11674;52.428;13.584;2023-03-14T15:12:51;0.82;;;0.50;;
23015;SDS011;11674;52.428;13.584;2023-03-14T15:17:58;1.92;;;0.60;;
23015;SDS011;11674;52.428;13.584;2023-03-14T15:23:12;1.70;;;0.63;;
23015;SDS011;11674;52.428;13.584;2023-03-14T15:28:21;1.17;;;0.47;;
23015;SDS011;11674;52.428;13.584;2023-03-14T15:33:30;0.40;;;0.40;;
23015;SDS011;11674;52.428;13.584;2023-03-14T15:38:37;6.10;;;0.65;;
23015;SDS011;11674;52.428;13.584;2023-03-14T15:43:44;1.75;;;0.80;;
23015;SDS011;11674;52.428;13.584;2023-03-14T15:48:51;2.03;;;0.93;;
23015;SDS011;11674;52.428;13.584;2023-03-14T15:53:58;0.60;;;0.55;;
23015;SDS011;11674;52.428;13.584;2023-03-14T15:59:05;1.52;;;0.88;;
23015;SDS011;11674;52.428;13.584;2023-03-14T16:04:12;0.52;;;0.50;;
23015;SDS011;11674;52.428;13.584;2023-03-14T16:09:19;3.97;;;0.63;;
23015;SDS011;11674;52.428;13.584;2023-03-14T16:14:26;2.40;;;1.70;;
23015;SDS011;11674;52.428;13.584;2023-03-14T16:19:33;1.13;;;0.55;;
23015;SDS011;11674;52.428;13.584;2023-03-14T16:24:40;1.55;;;0.70;;
23015;SDS011;11674;52.428;13.584;2023-03-14T16:29:47;0.80;;;0.60;;
23015;SDS011;11674;52.428;13.584;2023-03-14T16:34:54;0.70;;;0.70;;
23015;SDS011;11674;52.428;13.584;2023-03-14T16:40:01;0.75;;;0.63;;
23015;SDS011;11674;52.428;13.584;2023-03-14T16:45:08;0.70;;;0.55;;
23015;SDS011;11674;52.428;13.584;2023-03-14T16:50:15;0.95;;;0.70;;
23015;SDS011;11674;52.428;13.584;2023-03-14T16:55:22;1.02;;;0.80;;
23015;SDS011;11674;52.428;13.584;2023-03-14T17:00:36;1.05;;;0.90;;
23015;SDS011;11674;52.428;13.584;2023-03-14T17:05:47;1.77;;;0.93;;
23015;SDS011;11674;52.428;13.584;2023-03-14T17:10:56;1.50;;;0.90;;
23015;SDS011;11674;52.428;13.584;2023-03-14T17:16:03;1.95;;;0.90;;
23015;SDS011;11674;52.428;13.584;2023-03-14T17:21:10;2.25;;;0.63;;
23015;SDS011;11674;52.428;13.584;2023-03-14T17:26:17;1.65;;;1.00;;
23015;SDS011;11674;52.428;13.584;2023-03-14T17:31:24;1.77;;;1.00;;
23015;SDS011;11674;52.428;13.584;2023-03-14T17:36:31;5.60;;;1.42;;
23015;SDS011;11674;52.428;13.584;2023-03-14T17:41:38;7.35;;;1.95;;
23015;SDS011;11674;52.428;13.584;2023-03-14T17:46:45;1.92;;;1.30;;
23015;SDS011;11674;52.428;13.584;2023-03-14T17:51:52;3.08;;;1.50;;
23015;SDS011;11674;52.428;13.584;2023-03-14T17:56:59;5.43;;;1.40;;
23015;SDS011;11674;52.428;13.584;2023-03-14T18:02:07;5.80;;;2.33;;
23015;SDS011;11674;52.428;13.584;2023-03-14T18:07:15;5.30;;;2.47;;
23015;SDS011;11674;52.428;13.584;2023-03-14T18:12:22;4.18;;;2.30;;
23015;SDS011;11674;52.428;13.584;2023-03-14T18:17:29;8.25;;;3.30;;
23015;SDS011;11674;52.428;13.584;2023-03-14T18:22:36;7.80;;;3.58;;
23015;SDS011;11674;52.428;13.584;2023-03-14T18:27:43;5.22;;;2.45;;
23015;SDS011;11674;52.428;13.584;2023-03-14T18:32:50;8.60;;;3.42;;
23015;SDS011;11674;52.428;13.584;2023-03-14T18:37:57;7.57;;;2.60;;
23015;SDS011;11674;52.428;13.584;2023-03-14T18:43:04;9.30;;;2.58;;
23015;SDS011;11674;52.428;13.584;2023-03-14T18:48:11;12.20;;;1.80;;
23015;SDS011;11674;52.428;13.584;2023-03-14T18:53:18;7.18;;;1.95;;
23015;SDS011;11674;52.428;13.584;2023-03-14T18:58:25;6.70;;;1.50;;
23015;SDS011;11674;52.428;13.584;2023-03-14T19:03:33;8.07;;;1.83;;
23015;SDS011;11674;52.428;13.584;2023-03-14T19:08:40;5.75;;;2.50;;
23015;SDS011;11674;52.428;13.584;2023-03-14T19:13:47;7.15;;;3.20;;
23015;SDS011;11674;52.428;13.584;2023-03-14T19:18:54;6.40;;;2.53;;
23015;SDS011;11674;52.428;13.584;2023-03-14T19:24:02;11.88;;;2.72;;
23015;SDS011;11674;52.428;13.584;2023-03-14T19:29:09;18.20;;;3.38;;
23015;SDS011;11674;52.428;13.584;2023-03-14T19:34:16;11.45;;;2.67;;
23015;SDS011;11674;52.428;13.584;2023-03-14T19:39:23;7.38;;;2.80;;
23015;SDS011;11674;52.428;13.584;2023-03-14T19:44:30;9.38;;;2.90;;
23015;SDS011;11674;52.428;13.584;2023-03-14T19:49:37;6.88;;;2.20;;
23015;SDS011;11674;52.428;13.584;2023-03-14T19:54:44;14.02;;;3.30;;
23015;SDS011;11674;52.428;13.584;2023-03-14T19:59:54;9.63;;;2.65;;
23015;SDS011;11674;52.428;13.584;2023-03-14T20:05:01;15.52;;;1.40;;
23015;SDS011;11674;52.428;13.584;2023-03-14T20:10:08;4.47;;;1.02;;
23015;SDS011;11674;52.428;13.584;2023-03-14T20:15:16;12.55;;;2.20;;
23015;SDS011;11674;52.428;13.584;2023-03-14T20:20:24;7.03;;;1.98;;
23015;SDS011;11674;52.428;13.584;2023-03-14T20:25:32;6.97;;;1.77;;
23015;SDS011;11674;52.428;13.584;2023-03-14T20:30:41;5.20;;;1.40;;
23015;SDS011;11674;52.428;13.584;2023-03-14T20:35:52;14.32;;;2.35;;
23015;SDS011;11674;52.428;13.584;2023-03-14T20:41:05;3.28;;;1.20;;
23015;SDS011;11674;52.428;13.584;2023-03-14T20:46:12;9.20;;;1.48;;
23015;SDS011;11674;52.428;13.584;2023-03-14T20:51:22;7.47;;;1.40;;
23015;SDS011;11674;52.428;13.584;2023-03-14T20:56:32;2.53;;;1.27;;
23015;SDS011;11674;52.428;13.584;2023-03-14T21:01:39;10.15;;;2.22;;
23015;SDS011;11674;52.428;13.584;2023-03-14T21:06:47;9.30;;;1.77;;
23015;SDS011;11674;52.428;13.584;2023-03-14T21:11:54;6.60;;;1.30;;
23015;SDS011;11674;52.428;13.584;2023-03-14T21:17:01;8.05;;;1.90;;
23015;SDS011;11674;52.428;13.584;2023-03-14T21:22:08;11.80;;;1.90;;
23015;SDS011;11674;52.428;13.584;2023-03-14T21:27:15;9.52;;;1.58;;
23015;SDS011;11674;52.428;13.584;2023-03-14T21:32:22;8.40;;;2.08;;
23015;SDS011;11674;52.428;13.584;2023-03-14T21:37:29;10.27;;;1.75;;
23015;SDS011;11674;52.428;13.584;2023-03-14T21:42:36;12.98;;;1.50;;
23015;SDS011;11674;52.428;13.584;2023-03-14T21:47:43;5.57;;;1.60;;
23015;SDS011;11674;52.428;13.584;2023-03-14T21:52:50;5.88;;;1.88;;
23015;SDS011;11674;52.428;13.584;2023-03-14T21:57:58;10.07;;;2.17;;
23015;SDS011;11674;52.428;13.584;2023-03-14T22:03:05;16.80;;;3.85;;
23015;SDS011;11674;52.428;13.584;2023-03-14T22:08:13;42.08;;;14.18;;
23015;SDS011;11674;52.428;13.584;2023-03-14T22:13:23;7.30;;;1.63;;
23015;SDS011;11674;52.428;13.584;2023-03-14T22:18:30;8.52;;;1.75;;
23015;SDS011;11674;52.428;13.584;2023-03-14T22:23:37;8.73;;;2.33;;
23015;SDS011;11674;52.428;13.584;2023-03-14T22:28:44;20.02;;;2.13;;
23015;SDS011;11674;52.428;13.584;2023-03-14T22:33:51;13.90;;;2.10;;
23015;SDS011;11674;52.428;13.584;2023-03-14T22:38:58;10.88;;;2.30;;
23015;SDS011;11674;52.428;13.584;2023-03-14T22:44:05;12.82;;;2.67;;
23015;SDS011;11674;52.428;13.584;2023-03-14T22:49:12;11.82;;;2.15;;
23015;SDS011;11674;52.428;13.584;2023-03-14T22:54:19;10.18;;;1.85;;
23015;SDS011;11674;52.428;13.584;2023-03-14T22:59:26;9.95;;;1.95;;
23015;SDS011;11674;52.428;13.584;2023-03-14T23:04:33;8.30;;;1.65;;
23015;SDS011;11674;52.428;13.584;2023-03-14T23:09:40;11.57;;;1.83;;
23015;SDS011;11674;52.428;13.584;2023-03-14T23:14:47;10.57;;;1.63;;
23015;SDS011;11674;52.428;13.584;2023-03-14T23:19:54;6.93;;;1.83;;
23015;SDS011;11674;52.428;13.584;2023-03-14T23:25:01;10.00;;;1.65;;
23015;SDS011;11674;52.428;13.584;2023-03-14T23:30:09;11.48;;;1.80;;
23015;SDS011;11674;52.428;13.584;2023-03-14T23:35:17;10.15;;;2.38;;
23015;SDS011;11674;52.428;13.584;2023-03-14T23:40:24;13.25;;;1.88;;
23015;SDS011;11674;52.428;13.584;2023-03-14T23:45:31;12.75;;;1.88;;
23015;SDS011;11674;52.428;13.584;2023-03-14T23:50:38;11.05;;;1.75;;
23015;SDS011;11674;52.428;13.584;2023-03-14T23:55:45;10.52;;;1.65;;
